Time;durP1;ratioP1;P1;durP2;ratioP2;P2;SDS_P1;SDS_P2;PMS_P1;PMS_P2;Temp;Humidity;BMP_temperature;BMP_pressure;BME280_temperature;BME280_humidity;BME280_pressure;Samples;Min_cycle;Max_cycle;Signal;HPM_P1;HPM_P2
2022/10/21 00:00:53;;;;;;;7.60;6.82;;;14.80;99.90;;;;;;5054457;28;20025;-87
2022/10/21 00:03:19;;;;;;;10.02;7.53;;;;;;;;;;5072060;28;20043;-87
2022/10/21 00:05:46;;;;;;;8.65;7.55;;;;;;;;;;5054477;28;20025;-87
2022/10/21 00:08:12;;;;;;;8.52;7.30;;;;;;;;;;5071653;28;20071;-87
2022/10/21 00:10:38;;;;;;;10.07;7.88;;;;;;;;;;5054847;28;20037;-87
2022/10/21 00:13:04;;;;;;;9.70;8.23;;;14.90;99.90;;;;;;5054485;28;20040;-87
2022/10/21 00:15:30;;;;;;;8.68;7.32;;;;;;;;;;5071286;28;20029;-87
2022/10/21 00:17:57;;;;;;;7.63;6.95;;;;;;;;;;5071827;28;20029;-87
2022/10/21 00:20:23;;;;;;;9.13;8.27;;;;;;;;;;5071688;28;20043;-87
2022/10/21 00:22:49;;;;;;;12.18;7.97;;;;;;;;;;5071191;28;20036;-87
2022/10/21 00:25:16;;;;;;;10.68;9.32;;;;;;;;;;5071972;28;20058;-87
2022/10/21 00:27:42;;;;;;;7.43;6.82;;;14.80;99.90;;;;;;5054364;28;20059;-87
2022/10/21 00:30:10;;;;;;;10.70;8.15;;;14.90;99.90;;;;;;5049898;28;20029;-87
2022/10/21 00:32:36;;;;;;;8.98;8.07;;;14.80;99.90;;;;;;5052798;28;20049;-87
2022/10/21 00:35:02;;;;;;;13.18;9.13;;;14.90;99.90;;;;;;5071839;28;20040;-87
2022/10/21 00:37:32;;;;;;;6.97;6.38;;;14.80;99.90;;;;;;5053517;28;20017;-87
2022/10/21 00:39:58;;;;;;;10.98;9.13;;;14.80;99.90;;;;;;5070930;28;20041;-87
2022/10/21 00:42:33;;;;;;;8.35;7.70;;;14.90;99.90;;;;;;5053726;28;20029;-87
2022/10/21 00:45:16;;;;;;;8.98;7.53;;;14.80;99.90;;;;;;5070705;28;20028;-87
2022/10/21 00:48:13;;;;;;;6.78;6.18;;;14.80;99.90;;;;;;5070045;28;20079;-87
2022/10/21 00:50:52;;;;;;;7.55;6.85;;;14.80;99.90;;;;;;5066381;28;20052;-87
2022/10/21 00:53:19;;;;;;;8.50;6.78;;;14.80;99.90;;;;;;5070408;28;20039;-87
2022/10/21 00:55:50;;;;;;;9.00;8.18;;;14.80;99.90;;;;;;5071086;28;20032;-87
2022/10/21 00:58:20;;;;;;;8.45;7.65;;;14.80;99.90;;;;;;5069953;28;20029;-87
2022/10/21 01:00:46;;;;;;;8.57;7.68;;;14.80;99.90;;;;;;5070210;28;20036;-87
2022/10/21 01:03:13;;;;;;;6.47;5.88;;;14.90;99.90;;;;;;5070983;28;20033;-87
2022/10/21 01:05:41;;;;;;;7.78;6.35;;;14.70;99.90;;;;;;5070703;28;20060;-87
2022/10/21 01:08:07;;;;;;;8.95;7.43;;;14.80;99.90;;;;;;5053949;28;20033;-87
2022/10/21 01:10:33;;;;;;;7.15;6.32;;;14.70;99.90;;;;;;5053577;28;20025;-87
2022/10/21 01:13:14;;;;;;;7.40;6.60;;;14.70;99.90;;;;;;5053534;28;20044;-87
2022/10/21 01:15:59;;;;;;;6.70;5.55;;;14.70;99.90;;;;;;5053282;28;20035;-87
2022/10/21 01:18:50;;;;;;;9.45;6.13;;;14.70;99.90;;;;;;5071011;28;20063;-87
2022/10/21 01:21:24;;;;;;;9.05;6.88;;;14.70;99.90;;;;;;5069805;28;20052;-87
2022/10/21 01:24:19;;;;;;;6.50;5.80;;;14.70;99.90;;;;;;5069925;28;20055;-87
2022/10/21 01:26:56;;;;;;;7.80;5.60;;;14.70;99.90;;;;;;5052371;28;20045;-86
2022/10/21 01:29:53;;;;;;;6.50;5.43;;;14.70;99.90;;;;;;5070228;28;20033;-87
2022/10/21 01:32:30;;;;;;;8.48;7.65;;;14.60;99.90;;;;;;5070533;28;20100;-87
2022/10/21 01:35:23;;;;;;;7.97;6.45;;;14.60;99.90;;;;;;5070682;28;20035;-87
2022/10/21 01:38:20;;;;;;;6.57;4.70;;;14.60;99.90;;;;;;5071195;28;20029;-87
2022/10/21 01:41:24;;;;;;;10.27;5.60;;;14.60;99.90;;;;;;5070415;28;20061;-86
2022/10/21 01:43:58;;;;;;;7.75;6.07;;;14.60;99.90;;;;;;5050343;28;20037;-87
2022/10/21 01:46:35;;;;;;;8.52;5.90;;;14.60;99.90;;;;;;5060680;28;20037;-86
2022/10/21 01:49:08;;;;;;;9.38;6.13;;;14.60;99.90;;;;;;5053111;28;20036;-86
2022/10/21 01:51:35;;;;;;;6.55;5.95;;;14.60;99.90;;;;;;5071077;28;20093;-87
2022/10/21 01:54:15;;;;;;;6.70;5.90;;;14.60;99.90;;;;;;5053049;28;20033;-87
2022/10/21 01:56:43;;;;;;;5.97;5.47;;;14.50;99.90;;;;;;5070750;28;20029;-87
2022/10/21 01:59:12;;;;;;;11.07;6.82;;;14.50;99.90;;;;;;5053946;28;20097;-87
2022/10/21 02:01:39;;;;;;;12.68;7.15;;;14.60;99.90;;;;;;5070406;28;20085;-87
2022/10/21 02:04:06;;;;;;;7.93;4.93;;;14.50;99.90;;;;;;5053474;28;20029;-87
2022/10/21 02:06:32;;;;;;;4.97;4.57;;;14.50;99.90;;;;;;5070429;28;20021;-87
2022/10/21 02:08:58;;;;;;;9.60;6.18;;;;;;;;;;5070146;28;20025;-87
2022/10/21 02:11:25;;;;;;;6.50;5.32;;;14.50;99.90;;;;;;5070351;28;20089;-87
2022/10/21 02:14:11;;;;;;;5.28;4.78;;;14.50;99.90;;;;;;5053527;28;20033;-87
2022/10/21 02:16:38;;;;;;;7.95;5.68;;;14.50;99.90;;;;;;5069898;28;20131;-87
2022/10/21 02:19:16;;;;;;;4.47;4.07;;;14.50;99.90;;;;;;5053044;28;20063;-87
2022/10/21 02:21:45;;;;;;;14.98;4.25;;;14.50;99.90;;;;;;5069887;28;20021;-86
2022/10/21 02:24:26;;;;;;;7.63;4.20;;;14.50;99.90;;;;;;5068909;28;20064;-87
2022/10/21 02:26:52;;;;;;;4.63;4.22;;;14.50;99.90;;;;;;5069584;28;20063;-87
2022/10/21 02:29:24;;;;;;;5.95;3.67;;;14.50;99.90;;;;;;5052878;28;20029;-87
2022/10/21 02:32:04;;;;;;;4.10;3.42;;;14.50;99.90;;;;;;5068926;28;20036;-86
2022/10/21 02:34:48;;;;;;;4.45;4.05;;;14.40;99.90;;;;;;5069870;28;20033;-87
2022/10/21 02:37:47;;;;;;;5.78;3.92;;;14.40;99.90;;;;;;5049610;28;20033;-87
2022/10/21 02:40:42;;;;;;;5.45;3.95;;;14.40;99.90;;;;;;5049340;28;20029;-86
2022/10/21 02:43:46;;;;;;;6.20;3.25;;;14.40;99.90;;;;;;5048834;28;20037;-87
2022/10/21 02:46:13;;;;;;;4.10;3.13;;;14.40;99.90;;;;;;5069781;28;20036;-87
2022/10/21 02:48:44;;;;;;;3.85;3.50;;;14.40;99.90;;;;;;5053334;28;20033;-87
2022/10/21 02:51:10;;;;;;;5.20;3.03;;;14.40;99.90;;;;;;5069858;28;20111;-86
2022/10/21 02:53:36;;;;;;;4.70;3.80;;;14.30;99.90;;;;;;5070010;28;20029;-86
2022/10/21 02:56:03;;;;;;;3.50;3.20;;;14.30;99.90;;;;;;5070197;28;20040;-86
2022/10/21 02:58:29;;;;;;;4.28;3.97;;;14.30;99.90;;;;;;5069625;28;20385;-86
2022/10/21 03:00:55;;;;;;;6.38;3.50;;;14.30;99.90;;;;;;5073130;28;20020;-87
2022/10/21 03:03:20;;;;;;;6.55;3.67;;;14.30;99.90;;;;;;5057639;28;20111;-86
2022/10/21 03:05:47;;;;;;;3.78;3.40;;;14.30;99.90;;;;;;5056916;28;20044;-86
2022/10/21 03:08:13;;;;;;;4.28;3.25;;;14.20;99.90;;;;;;5073710;28;20037;-87
2022/10/21 03:10:39;;;;;;;9.43;3.55;;;14.20;99.90;;;;;;5073427;28;20036;-87
2022/10/21 03:13:05;;;;;;;4.03;3.42;;;14.20;99.90;;;;;;5056636;28;20037;-87
2022/10/21 03:15:30;;;;;;;12.90;3.67;;;14.20;99.90;;;;;;5039972;28;20045;-86
2022/10/21 03:17:56;;;;;;;4.60;2.67;;;14.20;99.90;;;;;;5057223;28;20029;-87
2022/10/21 03:20:23;;;;;;;3.70;3.38;;;14.20;99.90;;;;;;5073441;28;20031;-87
2022/10/21 03:22:49;;;;;;;5.75;2.70;;;14.20;99.90;;;;;;5073044;28;20108;-87
2022/10/21 03:25:15;;;;;;;3.15;2.65;;;14.20;99.90;;;;;;5073062;28;20037;-86
2022/10/21 03:27:41;;;;;;;7.13;2.35;;;;;;;;;;5072584;28;20059;-86
2022/10/21 03:30:08;;;;;;;3.13;2.88;;;14.20;99.90;;;;;;5074055;28;20029;-86
2022/10/21 03:32:35;;;;;;;6.38;2.72;;;;;;;;;;5055925;28;20040;-86
2022/10/21 03:35:01;;;;;;;6.22;2.85;;;;;;;;;;5072720;28;20029;-86
2022/10/21 03:37:27;;;;;;;3.30;2.67;;;;;;;;;;5055520;28;20481;-87
2022/10/21 03:39:53;;;;;;;5.32;2.95;;;;;;;;;;5072425;28;20473;-87
2022/10/21 03:42:20;;;;;;;3.05;2.80;;;;;;;;;;5053503;28;20057;-87
2022/10/21 03:44:46;;;;;;;9.82;4.15;;;;;;;;;;5053593;28;20395;-87
2022/10/21 03:47:12;;;;;;;5.95;3.50;;;;;;;;;;5053416;28;20034;-87
2022/10/21 03:49:38;;;;;;;10.57;2.55;;;14.10;99.90;;;;;;5066396;28;20025;-87
2022/10/21 03:52:05;;;;;;;2.20;2.00;;;14.10;99.90;;;;;;5065387;28;20017;-88
2022/10/21 03:54:31;;;;;;;2.85;2.65;;;14.00;99.90;;;;;;5072921;28;20051;-87
2022/10/21 03:56:57;;;;;;;2.88;1.98;;;;;;;;;;5074043;28;20029;-87
2022/10/21 03:59:24;;;;;;;2.10;2.00;;;12.80;99.90;;;;;;5054798;28;20021;-87
2022/10/21 04:01:50;;;;;;;2.95;2.28;;;;;;;;;;5073776;28;20021;-87
2022/10/21 04:04:16;;;;;;;3.10;2.80;;;;;;;;;;5055721;28;20053;-87
2022/10/21 04:06:42;;;;;;;4.57;3.15;;;;;;;;;;5043518;28;20025;-87
2022/10/21 04:09:09;;;;;;;3.28;2.85;;;;;;;;;;5046849;28;20033;-89
2022/10/21 04:11:35;;;;;;;6.10;2.75;;;14.10;99.90;;;;;;5061068;28;20036;-89
2022/10/21 04:14:01;;;;;;;5.03;1.33;;;14.00;99.90;;;;;;5039165;28;20402;-88
2022/10/21 04:16:27;;;;;;;5.18;2.28;;;;;;;;;;5032607;28;20033;-88
2022/10/21 04:18:53;;;;;;;2.50;1.88;;;;;;;;;;5065750;28;20036;-88
2022/10/21 04:21:19;;;;;;;4.45;2.30;;;14.00;99.90;;;;;;5065872;28;20020;-88
2022/10/21 04:23:45;;;;;;;2.17;1.83;;;14.00;99.90;;;;;;5049122;28;20037;-88
2022/10/21 04:26:11;;;;;;;6.82;2.95;;;14.10;99.90;;;;;;5033104;28;20033;-88
2022/10/21 04:28:39;;;;;;;2.75;2.15;;;14.00;99.90;;;;;;5032405;28;20057;-90
2022/10/21 04:31:05;;;;;;;4.88;2.08;;;;;;;;;;5032351;28;20037;-90
2022/10/21 04:33:31;;;;;;;1.92;1.80;;;14.00;99.90;;;;;;5065356;28;20033;-90
2022/10/21 04:36:00;;;;;;;6.03;2.53;;;14.00;99.90;;;;;;5032792;28;20027;-90
2022/10/21 04:38:27;;;;;;;2.95;1.92;;;14.00;99.90;;;;;;5048927;28;20036;-90
2022/10/21 04:41:01;;;;;;;2.17;1.40;;;14.00;99.90;;;;;;5065379;28;20021;-91
2022/10/21 04:43:27;;;;;;;3.50;2.78;;;14.00;99.90;;;;;;5048936;28;20040;-89
2022/10/21 04:45:54;;;;;;;4.25;1.90;;;14.00;99.90;;;;;;5046718;28;20025;-90
2022/10/21 04:48:21;;;;;;;3.53;2.00;;;;;;;;;;5045194;28;20040;-90
2022/10/21 04:50:48;;;;;;;4.63;2.50;;;14.00;99.90;;;;;;5065128;28;20413;-89
2022/10/21 04:53:15;;;;;;;1.83;1.70;;;13.90;99.90;;;;;;5048583;28;20032;-88
2022/10/21 04:55:40;;;;;;;2.15;1.92;;;13.90;99.90;;;;;;5048561;28;20021;-88
2022/10/21 04:58:07;;;;;;;9.40;1.75;;;;;;;;;;5064602;28;20037;-88
2022/10/21 05:00:33;;;;;;;4.13;2.05;;;13.90;99.90;;;;;;5050717;28;20028;-89
2022/10/21 05:02:59;;;;;;;3.63;2.22;;;;;;;;;;5048349;28;20037;-88
2022/10/21 05:05:26;;;;;;;4.75;2.08;;;;;;;;;;5031971;28;20055;-89
2022/10/21 05:07:51;;;;;;;6.97;3.22;;;13.90;99.90;;;;;;5036523;28;20022;-88
2022/10/21 05:10:18;;;;;;;9.93;2.05;;;;;;;;;;5054383;28;20044;-88
2022/10/21 05:12:43;;;;;;;2.63;1.40;;;13.90;99.90;;;;;;5064263;28;20033;-88
2022/10/21 05:15:09;;;;;;;2.08;1.05;;;13.90;99.90;;;;;;5061998;28;20055;-88
2022/10/21 05:17:36;;;;;;;1.25;1.15;;;;;;;;;;5064588;28;20025;-89
2022/10/21 05:20:03;;;;;;;1.48;1.27;;;13.90;99.90;;;;;;5073585;28;20057;-89
2022/10/21 05:22:29;;;;;;;1.92;1.70;;;13.80;99.90;;;;;;5047313;28;20013;-88
2022/10/21 05:24:55;;;;;;;1.48;1.20;;;;;;;;;;5064658;28;20054;-88
2022/10/21 05:27:21;;;;;;;1.25;1.15;;;13.80;99.90;;;;;;5065638;28;20048;-89
2022/10/21 05:29:47;;;;;;;3.40;0.90;;;13.80;99.90;;;;;;5064441;28;20028;-88
2022/10/21 05:32:13;;;;;;;2.75;2.35;;;13.90;99.90;;;;;;5081288;28;20526;-88
2022/10/21 05:34:39;;;;;;;3.88;1.10;;;13.80;99.90;;;;;;5048427;28;20032;-87
2022/10/21 05:37:05;;;;;;;7.45;1.45;;;13.80;99.90;;;;;;5048115;28;20051;-86
2022/10/21 05:39:31;;;;;;;1.75;0.95;;;13.80;99.90;;;;;;5065920;28;20029;-88
2022/10/21 05:41:57;;;;;;;1.55;1.40;;;13.80;99.90;;;;;;5048375;28;20040;-88
2022/10/21 05:44:23;;;;;;;2.97;2.30;;;13.80;99.90;;;;;;5048042;28;20037;-87
2022/10/21 05:46:49;;;;;;;1.35;1.25;;;13.80;99.90;;;;;;5047865;28;20036;-87
2022/10/21 05:49:15;;;;;;;2.55;0.95;;;13.80;99.90;;;;;;5051457;28;20032;-87
2022/10/21 05:51:43;;;;;;;1.60;1.50;;;13.80;99.90;;;;;;5040666;28;20033;-87
2022/10/21 05:54:09;;;;;;;3.75;1.95;;;;;;;;;;5063855;28;20040;-88
2022/10/21 05:56:35;;;;;;;3.03;1.73;;;13.80;99.90;;;;;;5048291;28;20033;-88
2022/10/21 05:59:01;;;;;;;1.38;1.20;;;13.80;99.90;;;;;;5044530;28;20040;-88
2022/10/21 06:01:26;;;;;;;1.10;1.00;;;13.80;99.90;;;;;;5030704;28;20032;-88
2022/10/21 06:03:52;;;;;;;2.67;1.48;;;13.80;99.90;;;;;;5064599;28;20052;-88
2022/10/21 06:06:18;;;;;;;1.13;1.02;;;13.70;99.90;;;;;;5064740;28;20021;-87
2022/10/21 06:08:45;;;;;;;3.65;1.80;;;13.80;99.90;;;;;;5015307;28;20178;-87
2022/10/21 06:11:16;;;;;;;2.13;1.75;;;13.70;99.90;;;;;;5048184;28;20230;-87
2022/10/21 06:13:42;;;;;;;1.77;1.60;;;13.70;99.90;;;;;;5064669;28;20101;-87
2022/10/21 06:16:10;;;;;;;2.47;2.03;;;13.70;99.90;;;;;;5049017;28;20080;-88
2022/10/21 06:18:36;;;;;;;1.98;1.23;;;;;;;;;;5064533;28;20108;-86
2022/10/21 06:21:03;;;;;;;4.30;2.15;;;13.70;99.90;;;;;;5064393;28;20029;-88
2022/10/21 06:23:29;;;;;;;3.03;1.63;;;13.70;99.90;;;;;;5044845;28;20081;-87
2022/10/21 06:26:04;;;;;;;1.90;1.80;;;13.70;99.90;;;;;;5064325;28;20059;-87
2022/10/21 06:28:32;;;;;;;3.47;1.92;;;13.80;99.90;;;;;;5047151;28;20053;-87
2022/10/21 06:30:58;;;;;;;5.28;1.45;;;13.70;99.90;;;;;;5062878;28;20029;-87
2022/10/21 06:33:24;;;;;;;2.83;2.17;;;13.70;99.90;;;;;;5060814;28;20071;-87
2022/10/21 06:35:50;;;;;;;12.25;3.03;;;13.70;99.90;;;;;;5051515;28;20029;-87
2022/10/21 06:38:17;;;;;;;4.35;3.50;;;;;;;;;;5068042;28;20075;-86
2022/10/21 06:40:44;;;;;;;3.65;3.10;;;13.70;99.90;;;;;;5068149;28;20035;-87
2022/10/21 06:43:10;;;;;;;7.53;3.88;;;13.70;99.90;;;;;;5051444;28;20120;-88
2022/10/21 06:45:36;;;;;;;3.80;1.90;;;13.70;99.90;;;;;;5051303;28;20059;-87
2022/10/21 06:48:02;;;;;;;3.63;2.78;;;13.70;99.90;;;;;;5050702;28;20025;-86
2022/10/21 06:50:28;;;;;;;2.90;2.28;;;13.70;99.90;;;;;;5057690;28;20040;-87
2022/10/21 06:52:54;;;;;;;4.88;2.88;;;13.70;99.90;;;;;;5064694;28;20037;-87
2022/10/21 06:55:21;;;;;;;4.78;2.20;;;;;;;;;;5047841;28;20089;-87
2022/10/21 06:57:46;;;;;;;2.95;2.75;;;13.70;99.90;;;;;;5047694;28;20033;-87
2022/10/21 07:00:13;;;;;;;2.83;2.08;;;13.70;99.90;;;;;;5060965;28;20043;-87
2022/10/21 07:02:40;;;;;;;5.00;1.67;;;13.80;99.90;;;;;;5051066;28;20021;-87
2022/10/21 07:05:06;;;;;;;4.80;2.03;;;13.80;99.90;;;;;;5050730;28;20059;-87
2022/10/21 07:07:32;;;;;;;2.20;1.98;;;13.80;99.90;;;;;;5067381;28;20035;-87
2022/10/21 07:09:58;;;;;;;4.32;2.15;;;13.80;99.90;;;;;;5050861;28;20104;-87
2022/10/21 07:12:25;;;;;;;2.58;2.35;;;13.80;99.90;;;;;;5067188;28;20036;-86
2022/10/21 07:14:51;;;;;;;2.92;2.65;;;13.80;99.90;;;;;;5067353;28;20029;-86
2022/10/21 07:17:17;;;;;;;4.82;2.10;;;;;;;;;;5050203;28;20021;-87
2022/10/21 07:19:43;;;;;;;4.28;2.75;;;13.80;99.90;;;;;;5034319;28;20037;-87
2022/10/21 07:22:09;;;;;;;7.65;3.20;;;13.80;99.90;;;;;;5067108;28;20482;-87
2022/10/21 07:24:35;;;;;;;6.38;4.05;;;13.80;99.90;;;;;;5030759;28;20025;-87
2022/10/21 07:27:01;;;;;;;3.75;3.40;;;13.80;99.90;;;;;;5067042;28;20071;-86
2022/10/21 07:29:28;;;;;;;4.88;2.42;;;13.80;99.90;;;;;;5066561;28;20025;-87
2022/10/21 07:31:53;;;;;;;5.03;3.45;;;13.80;99.90;;;;;;5034234;28;20083;-87
2022/10/21 07:34:19;;;;;;;3.08;2.83;;;13.80;99.90;;;;;;5049984;28;20486;-87
2022/10/21 07:36:51;;;;;;;5.18;3.05;;;13.90;99.90;;;;;;5060574;28;20108;-87
2022/10/21 07:39:21;;;;;;;2.97;2.58;;;13.80;99.90;;;;;;5064525;28;20075;-87
2022/10/21 07:41:55;;;;;;;2.80;2.45;;;13.90;99.90;;;;;;5055025;28;20079;-87
2022/10/21 07:44:25;;;;;;;4.85;2.67;;;13.90;99.90;;;;;;5046902;28;20065;-88
2022/10/21 07:46:52;;;;;;;3.45;2.97;;;13.90;99.90;;;;;;5029739;28;20033;-87
2022/10/21 07:49:19;;;;;;;3.17;1.95;;;13.90;99.90;;;;;;5047040;28;20079;-87
2022/10/21 07:51:46;;;;;;;3.67;2.60;;;13.90;99.90;;;;;;5051307;28;20024;-87
2022/10/21 07:54:15;;;;;;;5.65;3.03;;;13.90;99.90;;;;;;5066048;28;20093;-87
2022/10/21 07:56:46;;;;;;;5.65;3.17;;;13.90;99.90;;;;;;5050037;28;20029;-87
2022/10/21 07:59:14;;;;;;;9.70;2.67;;;13.90;99.90;;;;;;5067863;28;20498;-86
2022/10/21 08:01:42;;;;;;;2.78;2.15;;;13.90;99.90;;;;;;5049895;28;20036;-88
2022/10/21 08:04:10;;;;;;;3.25;2.45;;;13.90;99.90;;;;;;5066486;28;20159;-88
2022/10/21 08:06:36;;;;;;;2.50;2.30;;;13.90;99.90;;;;;;5049606;28;20033;-87
2022/10/21 08:09:03;;;;;;;4.43;2.38;;;13.90;99.90;;;;;;5049426;28;20466;-87
2022/10/21 08:11:30;;;;;;;2.53;2.30;;;13.90;99.90;;;;;;5049918;28;20075;-87
2022/10/21 08:13:57;;;;;;;3.78;2.25;;;13.90;99.90;;;;;;5049589;28;20440;-87
2022/10/21 08:16:23;;;;;;;4.40;2.40;;;13.90;99.90;;;;;;5066118;28;20412;-87
2022/10/21 08:18:49;;;;;;;4.10;2.75;;;14.00;99.90;;;;;;5066205;28;20104;-87
2022/10/21 08:21:16;;;;;;;4.00;3.63;;;13.90;99.90;;;;;;5053417;28;20039;-87
2022/10/21 08:23:42;;;;;;;2.60;2.35;;;14.00;99.90;;;;;;5049439;28;20036;-87
2022/10/21 08:26:13;;;;;;;2.90;2.55;;;14.00;99.90;;;;;;5045705;28;20022;-87
2022/10/21 08:28:40;;;;;;;3.22;2.63;;;14.00;99.90;;;;;;5029464;28;20383;-87
2022/10/21 08:31:09;;;;;;;3.35;2.70;;;14.00;99.90;;;;;;5029403;28;20033;-88
2022/10/21 08:33:35;;;;;;;2.65;2.35;;;14.00;99.90;;;;;;5046039;28;20029;-87
2022/10/21 08:36:11;;;;;;;3.33;3.10;;;14.00;99.90;;;;;;5029410;28;20052;-87
2022/10/21 08:38:38;;;;;;;2.75;2.55;;;14.00;99.90;;;;;;5035638;28;20142;-87
2022/10/21 08:41:26;;;;;;;7.43;4.03;;;14.00;99.90;;;;;;5065242;28;20032;-87
2022/10/21 08:43:53;;;;;;;2.53;2.35;;;14.00;99.90;;;;;;5048910;28;20033;-88
2022/10/21 08:46:28;;;;;;;5.10;3.53;;;14.00;99.90;;;;;;5048991;28;20033;-87
2022/10/21 08:49:26;;;;;;;2.75;2.55;;;14.00;99.90;;;;;;5048890;28;20052;-87
2022/10/21 08:52:11;;;;;;;2.33;2.13;;;14.00;99.90;;;;;;5062328;28;20899;-88
2022/10/21 08:54:50;;;;;;;7.57;2.65;;;14.00;99.90;;;;;;5045646;28;20037;-87
2022/10/21 08:57:16;;;;;;;2.85;2.65;;;14.00;99.90;;;;;;5056269;28;20032;-87
2022/10/21 08:59:42;;;;;;;5.20;2.90;;;14.00;99.90;;;;;;5065287;28;20029;-87
2022/10/21 09:02:11;;;;;;;6.15;3.13;;;14.00;99.90;;;;;;5065421;28;20397;-87
2022/10/21 09:05:07;;;;;;;1.92;1.73;;;14.00;99.90;;;;;;5048701;28;20025;-87
2022/10/21 09:07:50;;;;;;;2.78;2.00;;;14.10;99.90;;;;;;5065247;28;20033;-87
2022/10/21 09:10:27;;;;;;;3.67;3.38;;;14.10;99.90;;;;;;5065037;28;20072;-87
2022/10/21 09:13:15;;;;;;;5.88;2.70;;;14.10;99.90;;;;;;5064889;28;20032;-87
2022/10/21 09:16:09;;;;;;;2.42;2.22;;;14.10;99.90;;;;;;5064018;28;20032;-87
2022/10/21 09:19:17;;;;;;;5.35;3.05;;;14.20;99.90;;;;;;5064457;28;20029;-87
2022/10/21 09:22:00;;;;;;;13.27;1.90;;;14.20;99.90;;;;;;5021278;28;20034;-87
2022/10/21 09:24:42;;;;;;;5.40;3.08;;;14.20;99.90;;;;;;5064256;28;20107;-88
2022/10/21 09:27:09;;;;;;;2.80;2.58;;;14.20;99.90;;;;;;5064699;28;20079;-87
2022/10/21 09:29:48;;;;;;;3.03;2.78;;;14.20;99.90;;;;;;5064073;28;20020;-87
2022/10/21 09:32:32;;;;;;;3.53;1.93;;;14.20;99.90;;;;;;5087887;28;20036;-86
2022/10/21 09:35:07;;;;;;;2.22;1.88;;;14.20;99.90;;;;;;5065144;28;20037;-88
2022/10/21 09:37:47;;;;;;;4.10;2.75;;;14.20;99.90;;;;;;5066017;28;20032;-87
2022/10/21 09:40:22;;;;;;;3.00;2.65;;;14.30;99.90;;;;;;5064673;28;20017;-87
2022/10/21 09:42:51;;;;;;;1.80;1.65;;;14.30;99.90;;;;;;5064784;28;20111;-86
2022/10/21 09:45:26;;;;;;;4.68;2.70;;;14.30;99.90;;;;;;5064715;28;20021;-87
2022/10/21 09:47:57;;;;;;;8.88;3.25;;;14.30;99.90;;;;;;5048073;28;20036;-86
2022/10/21 09:50:24;;;;;;;2.97;2.47;;;14.30;99.90;;;;;;5064784;28;20037;-87
2022/10/21 09:53:03;;;;;;;6.22;3.80;;;14.30;99.90;;;;;;5064670;28;20082;-87
2022/10/21 09:55:31;;;;;;;4.40;3.25;;;14.30;99.90;;;;;;5048328;28;20029;-87
2022/10/21 09:57:59;;;;;;;5.65;3.15;;;14.40;99.90;;;;;;5066051;28;20029;-87
2022/10/21 10:00:44;;;;;;;2.90;2.63;;;14.40;99.90;;;;;;5064647;28;20040;-87
2022/10/21 10:03:10;;;;;;;3.00;2.67;;;14.50;99.90;;;;;;5048182;28;20036;-87
2022/10/21 10:05:55;;;;;;;5.47;3.65;;;14.40;99.90;;;;;;5047766;28;20033;-87
2022/10/21 10:08:30;;;;;;;4.22;3.72;;;14.40;99.90;;;;;;5032242;28;20124;-87
2022/10/21 10:11:10;;;;;;;3.00;2.17;;;14.40;99.90;;;;;;5068940;28;20056;-86
2022/10/21 10:13:38;;;;;;;3.72;3.35;;;14.40;99.90;;;;;;5047133;28;20044;-87
2022/10/21 10:16:12;;;;;;;5.20;2.95;;;14.50;99.90;;;;;;5052498;28;20101;-87
2022/10/21 10:18:38;;;;;;;2.97;2.65;;;14.50;99.90;;;;;;5056773;28;20094;-87
2022/10/21 10:21:15;;;;;;;3.60;2.92;;;14.50;99.90;;;;;;5048312;28;20022;-87
2022/10/21 10:23:51;;;;;;;5.68;3.35;;;14.60;99.90;;;;;;5048393;28;20029;-88
2022/10/21 10:26:21;;;;;;;3.92;2.67;;;14.60;99.90;;;;;;5048508;28;20056;-87
2022/10/21 10:28:54;;;;;;;3.33;3.03;;;14.70;99.90;;;;;;5047833;28;20057;-88
2022/10/21 10:31:48;;;;;;;5.05;3.80;;;14.70;99.90;;;;;;5063956;28;20049;-88
2022/10/21 10:34:21;;;;;;;5.38;3.03;;;14.80;99.90;;;;;;5064646;28;20096;-88
2022/10/21 10:36:48;;;;;;;2.60;2.40;;;14.80;99.90;;;;;;5047775;28;20040;-87
2022/10/21 10:39:29;;;;;;;4.55;2.78;;;14.80;99.90;;;;;;5047976;28;20022;-87
2022/10/21 10:41:55;;;;;;;2.05;1.92;;;14.90;99.90;;;;;;5064765;28;20026;-87
2022/10/21 10:44:38;;;;;;;5.75;3.33;;;14.90;99.90;;;;;;5050986;28;20037;-87
2022/10/21 10:47:07;;;;;;;1.70;1.60;;;15.00;99.90;;;;;;5047846;28;20033;-88
2022/10/21 10:49:42;;;;;;;3.38;2.40;;;15.10;99.90;;;;;;5047850;28;20479;-88
2022/10/21 10:52:11;;;;;;;3.58;2.25;;;15.20;99.90;;;;;;5047827;28;20037;-88
2022/10/21 10:54:43;;;;;;;6.82;2.60;;;15.30;99.90;;;;;;5047819;28;20398;-87
2022/10/21 10:57:11;;;;;;;3.80;1.88;;;15.40;99.90;;;;;;5047859;28;20029;-88
2022/10/21 11:00:14;;;;;;;3.17;2.63;;;15.40;99.90;;;;;;5047501;28;20105;-87
2022/10/21 11:03:02;;;;;;;2.97;1.70;;;15.50;99.90;;;;;;5047667;28;20033;-87
2022/10/21 11:05:54;;;;;;;1.77;1.67;;;15.60;99.90;;;;;;5047697;28;20030;-87
2022/10/21 11:08:40;;;;;;;1.20;1.20;;;15.60;99.90;;;;;;5083316;28;20049;-88
2022/10/21 11:11:14;;;;;;;2.42;1.90;;;15.70;99.90;;;;;;5050908;28;20056;-88
2022/10/21 11:13:40;;;;;;;3.65;1.73;;;15.70;99.90;;;;;;5050661;28;20032;-88
2022/10/21 11:16:26;;;;;;;2.42;2.30;;;15.60;99.90;;;;;;5065379;28;20051;-88
2022/10/21 11:19:11;;;;;;;4.25;1.58;;;15.60;99.90;;;;;;5050604;28;20052;-88
2022/10/21 11:21:53;;;;;;;1.75;1.30;;;15.70;99.90;;;;;;5049679;28;20040;-88
2022/10/21 11:24:28;;;;;;;3.08;1.10;;;15.80;99.90;;;;;;5050615;28;20094;-88
2022/10/21 11:26:57;;;;;;;1.25;0.98;;;15.90;99.90;;;;;;5050586;28;20047;-87
2022/10/21 11:29:44;;;;;;;0.73;0.60;;;16.00;99.90;;;;;;5050830;28;20044;-87
2022/10/21 11:32:21;;;;;;;2.00;0.95;;;16.10;99.90;;;;;;5058641;28;20036;-88
2022/10/21 11:35:28;;;;;;;3.50;1.27;;;16.20;99.90;;;;;;5050420;28;20118;-88
2022/10/21 11:38:02;;;;;;;1.92;0.95;;;16.30;99.90;;;;;;4993749;28;20034;-87
2022/10/21 11:40:31;;;;;;;3.85;0.90;;;16.20;99.90;;;;;;5074777;28;20032;-89
2022/10/21 11:43:21;;;;;;;5.00;1.02;;;16.20;99.90;;;;;;5066900;28;20493;-88
2022/10/21 11:45:57;;;;;;;2.05;0.80;;;16.20;99.90;;;;;;5050012;28;20044;-88
2022/10/21 11:48:55;;;;;;;1.40;0.80;;;16.20;99.90;;;;;;5050099;28;20468;-87
2022/10/21 11:51:38;;;;;;;0.60;0.50;;;16.10;99.90;;;;;;5047926;28;20047;-88
2022/10/21 11:54:13;;;;;;;1.02;0.90;;;16.10;99.90;;;;;;5067999;28;20037;-88
2022/10/21 11:57:07;;;;;;;0.45;0.45;;;16.10;99.90;;;;;;5049774;28;20044;-88
2022/10/21 12:00:04;;;;;;;1.38;0.88;;;16.00;99.90;;;;;;5049988;28;20083;-88
2022/10/21 12:02:41;;;;;;;0.98;0.93;;;16.00;99.90;;;;;;5066592;28;20067;-88
2022/10/21 12:05:26;;;;;;;1.88;1.27;;;16.10;99.90;;;;;;5049770;28;20060;-88
2022/10/21 12:08:11;;;;;;;1.65;1.08;;;16.20;99.90;;;;;;5066758;28;20029;-89
2022/10/21 12:10:50;;;;;;;1.25;1.15;;;16.20;99.90;;;;;;5066750;28;20029;-89
2022/10/21 12:13:24;;;;;;;1.00;1.00;;;16.40;99.90;;;;;;5049706;28;20029;-88
2022/10/21 12:15:58;;;;;;;1.27;1.17;;;16.50;99.90;;;;;;5049333;28;20025;-88
2022/10/21 12:18:27;;;;;;;0.70;0.70;;;16.60;99.90;;;;;;5049538;28;20037;-88
2022/10/21 12:20:53;;;;;;;0.65;0.65;;;16.70;99.90;;;;;;5066217;28;20021;-88
2022/10/21 12:23:23;;;;;;;0.50;0.50;;;16.70;99.90;;;;;;5049481;28;20024;-89
2022/10/21 12:26:13;;;;;;;1.20;0.93;;;16.80;99.90;;;;;;5066230;28;20024;-88
2022/10/21 12:29:01;;;;;;;1.55;1.25;;;16.90;99.90;;;;;;5049183;28;20056;-88
2022/10/21 12:31:50;;;;;;;0.93;0.73;;;16.90;99.90;;;;;;5065319;28;20036;-88
2022/10/21 12:34:16;;;;;;;0.80;0.80;;;17.10;99.90;;;;;;5065828;28;20033;-88
2022/10/21 12:36:45;;;;;;;3.17;0.88;;;17.00;99.90;;;;;;5065679;28;20058;-87
2022/10/21 12:39:32;;;;;;;0.73;0.68;;;16.90;99.90;;;;;;5049474;28;20071;-88
2022/10/21 12:42:04;;;;;;;1.15;0.50;;;16.90;99.90;;;;;;5049186;28;20025;-88
2022/10/21 12:44:31;;;;;;;1.27;0.75;;;16.80;99.90;;;;;;5049120;28;20044;-88
2022/10/21 12:47:03;;;;;;;2.13;0.70;;;16.70;99.90;;;;;;5065406;28;20059;-88
2022/10/21 12:49:33;;;;;;;1.65;0.75;;;16.70;99.90;;;;;;5065824;28;20088;-88
2022/10/21 12:52:02;;;;;;;1.25;1.02;;;16.60;99.90;;;;;;5067129;28;20421;-88
2022/10/21 12:54:54;;;;;;;0.93;0.73;;;16.50;99.90;;;;;;5049069;28;20040;-89
2022/10/21 12:57:26;;;;;;;1.23;0.60;;;16.50;99.90;;;;;;5049090;28;20029;-87
2022/10/21 13:00:27;;;;;;;1.27;1.10;;;16.50;99.90;;;;;;5048835;28;20028;-89
2022/10/21 13:03:03;;;;;;;1.15;0.77;;;16.50;99.90;;;;;;5048704;28;20029;-88
2022/10/21 13:05:35;;;;;;;1.63;1.10;;;16.50;99.90;;;;;;5048671;28;20470;-89
2022/10/21 13:08:13;;;;;;;0.98;0.85;;;16.50;99.90;;;;;;5065196;28;20039;-89
2022/10/21 13:10:39;;;;;;;1.23;1.13;;;16.50;99.90;;;;;;5065140;28;20039;-88
2022/10/21 13:13:28;;;;;;;1.08;0.95;;;16.60;99.90;;;;;;5048703;28;20048;-89
2022/10/21 13:15:54;;;;;;;1.10;0.75;;;16.60;99.90;;;;;;5048156;28;20033;-88
2022/10/21 13:18:54;;;;;;;0.57;0.57;;;16.70;99.90;;;;;;5048462;28;20025;-89
2022/10/21 13:21:39;;;;;;;2.38;0.93;;;16.80;99.90;;;;;;5065179;28;20386;-88
2022/10/21 13:24:11;;;;;;;1.35;0.70;;;16.80;99.90;;;;;;5048745;28;20064;-87